Elk, CA (95432)

3:23 AM PDT on August 21, 2014 (GMT -0700)
Rancho Navarro | Change Station
CLOSE
Current Station
Personal Weather Station
Location: Comptche, CA
Elevation: 1161 ft
Nearby Weather Stations

Elev 1161 ft 39.19 °N, 123.58 °W | Updated 9 minutes ago

Clear
Clear
53.4 °F
Feels Like 53.4 °F
N
0.0
Wind Variable Wind from West

Today
High -- | Low -- °F
--% Chance of Precip.
Yesterday
High -- | Low -- °F
Precip. -- in
6:33 AM 8:01 PM
Waning Crescent, 15% visible
Pressure 29.89 in
Visibility 10.0 miles
Clouds Clear
Dew Point 51 °F
Humidity 93%
Rainfall 0.00 in
Snow Depth Not available.
UV 0 out of 12
Pollen 6.90 out of 12
Air Quality Not available.
Flu Activity Not available.
METAR KUKI 210856Z AUTO 16005KT 10SM CLR 16/13 A2991 RMK AO2 SLP120 T01560128 51008

More Conditions Fewer Conditions

Pressure 29.89 in
Visibility 10.0 miles
Clouds Clear
Dew Point 51 °F
Humidity 93%
Rainfall 0.00 in
Snow Depth Not available.
UV 0 out of 12
Pollen 6.90 out of 12
Air Quality Not available.
Flu Activity Not available.
METAR KUKI 210856Z AUTO 16005KT 10SM CLR 16/13 A2991 RMK AO2 SLP120 T01560128 51008

More Conditions Fewer Conditions

10-Day Weather Forecast

Almanac

Astronomy

Aug. 21, 2014 Rise Set
Actual Time 6:33 AM PDT 8:01 PM PDT
Civil Twilight 6:05 AM PDT 8:29 PM PDT
Nautical Twilight 5:31 AM PDT 9:03 PM PDT
Astronomical Twilight 4:55 AM PDT 9:38 PM PDT
Moon 3:09 AM PDT 5:33 PM PDT
Length of Visible Light 14h 24m
Length of Day
13h 27m
Tomorrow will be 2m 21s shorter.
Waning Crescent, 15% of the Moon is Illuminated
Today
Waning Crescent
Aug 25
New
Sep 2
First Quarter
Sep 8
Full
Sep 15
Last Quarter

Today's Extremes

State Highs State Lows

Community

WunderPhotos

Upload Photos

1,745,871 photos uploaded!

Nearby

Snow Depth

Station Depth Elevation
CSS Lab 2 in 6900 ft
Echo Peak 1 in 7800 ft
Fallen Leaf 0 in 6300 ft
Hagan's Meadow 0 in 8000 ft
Forestdale Creek 0 in 8029 ft

Earthquake Activity

City Distance Mag. Time & Date
No recent earthquake activity has been reported nearby.
Minimum magnitude displayed is 2.5.

Coastal Water Temperatures

Place Temperature
Arena Cove, CA 57.9 °F
North Spit, CA 57.0 °F
Point Reyes, CA 60.1 °F
San Francisco, CA 64.0 °F
Richmond, CA 66.0 °F

Nearby Weather Stations